Time;durP1;ratioP1;P1;durP2;ratioP2;P2;SDS_P1;SDS_P2;PMS_P1;PMS_P2;Temp;Humidity;BMP_temperature;BMP_pressure;BME280_temperature;BME280_humidity;BME280_pressure;Samples;Min_cycle;Max_cycle;Signal;HPM_P1;HPM_P2
2022/05/25 00:00:26;;;;;;;0.70;0.60;;;17.00;99.90;;;;;;4956955;29;20399;-74
2022/05/25 00:02:54;;;;;;;0.60;0.60;;;16.90;99.90;;;;;;4956548;29;20028;-74
2022/05/25 00:05:20;;;;;;;0.52;0.45;;;16.90;99.90;;;;;;4956932;29;20031;-74
2022/05/25 00:07:47;;;;;;;0.63;0.60;;;16.90;99.90;;;;;;4956462;29;20026;-74
2022/05/25 00:10:13;;;;;;;1.42;0.65;;;16.90;99.90;;;;;;4957098;29;20027;-73
2022/05/25 00:12:40;;;;;;;1.85;0.70;;;16.90;99.90;;;;;;4939958;29;20031;-73
2022/05/25 00:15:08;;;;;;;0.52;0.47;;;16.90;99.90;;;;;;4956728;29;20028;-73
2022/05/25 00:17:34;;;;;;;0.50;0.50;;;16.90;99.90;;;;;;4957148;29;20019;-73
2022/05/25 00:19:59;;;;;;;0.70;0.60;;;16.90;99.90;;;;;;4939353;29;20039;-74
2022/05/25 00:22:50;;;;;;;0.63;0.60;;;16.90;99.90;;;;;;4956925;29;20055;-74
2022/05/25 00:25:21;;;;;;;0.60;0.60;;;16.90;99.90;;;;;;4956861;29;20360;-75
2022/05/25 00:27:48;;;;;;;0.40;0.40;;;16.90;99.90;;;;;;4956759;29;20035;-74
2022/05/25 00:30:15;;;;;;;0.82;0.50;;;16.90;99.90;;;;;;4956368;29;20072;-73
2022/05/25 00:32:41;;;;;;;0.50;0.50;;;16.80;99.90;;;;;;4956875;29;20031;-74
2022/05/25 00:35:13;;;;;;;0.50;0.50;;;16.80;99.90;;;;;;4956009;29;20653;-74
2022/05/25 00:37:39;;;;;;;0.50;0.50;;;16.80;99.90;;;;;;4956548;29;20039;-74
2022/05/25 00:40:07;;;;;;;0.57;0.50;;;16.80;99.90;;;;;;4955994;29;20439;-74
2022/05/25 00:42:35;;;;;;;1.20;0.60;;;16.80;99.90;;;;;;4956032;29;20070;-74
2022/05/25 00:45:03;;;;;;;0.95;0.80;;;16.80;99.90;;;;;;4941237;29;20035;-74
2022/05/25 00:47:30;;;;;;;1.27;0.60;;;16.80;99.90;;;;;;4956453;28;20111;-74
2022/05/25 00:49:56;;;;;;;0.82;0.50;;;16.80;99.90;;;;;;4956126;29;20035;-75
2022/05/25 00:52:22;;;;;;;0.52;0.52;;;16.80;99.90;;;;;;4956481;29;20045;-74
2022/05/25 00:54:55;;;;;;;0.75;0.70;;;16.80;99.90;;;;;;4956167;29;20031;-74
2022/05/25 00:57:22;;;;;;;0.80;0.55;;;16.80;99.90;;;;;;4955909;29;20316;-74
2022/05/25 00:59:57;;;;;;;1.08;0.60;;;16.80;99.90;;;;;;4956127;29;20471;-74
2022/05/25 01:02:25;;;;;;;1.55;0.40;;;16.80;99.90;;;;;;4956161;29;20031;-74
2022/05/25 01:04:50;;;;;;;0.50;0.50;;;16.80;99.90;;;;;;4956014;29;20035;-74
2022/05/25 01:07:32;;;;;;;0.40;0.40;;;16.80;99.90;;;;;;4956033;29;20032;-74
2022/05/25 01:09:57;;;;;;;;;;;16.80;99.90;;;;;;4956186;29;20031;-75
2022/05/25 01:13:01;;;;;;;0.55;0.40;;;16.80;99.90;;;;;;4956094;29;19914;-75
2022/05/25 01:16:11;;;;;;;0.60;0.60;;;16.80;99.90;;;;;;4956017;29;20233;-73
2022/05/25 01:19:02;;;;;;;0.50;0.40;;;16.80;99.90;;;;;;4956016;29;20059;-74
2022/05/25 01:21:58;;;;;;;0.63;0.50;;;16.70;99.90;;;;;;4955431;29;20027;-74
2022/05/25 01:24:43;;;;;;;0.57;0.57;;;16.70;99.90;;;;;;4955713;29;20038;-74
2022/05/25 01:27:23;;;;;;;0.60;0.50;;;16.70;99.90;;;;;;4955223;29;20074;-75
2022/05/25 01:30:03;;;;;;;0.43;0.43;;;16.70;99.90;;;;;;4955971;29;20050;-74
2022/05/25 01:33:10;;;;;;;0.50;0.50;;;16.70;99.90;;;;;;4955729;29;20073;-75
2022/05/25 01:35:44;;;;;;;0.50;0.50;;;16.70;99.90;;;;;;4938268;29;20031;-73
2022/05/25 01:38:47;;;;;;;0.47;0.47;;;16.70;99.90;;;;;;4954882;29;20024;-75
2022/05/25 01:41:28;;;;;;;0.70;0.55;;;16.70;99.90;;;;;;4954876;29;20554;-74
2022/05/25 01:44:01;;;;;;;0.50;0.50;;;16.60;99.90;;;;;;4955304;29;20047;-76
2022/05/25 01:46:34;;;;;;;0.40;0.30;;;16.60;99.90;;;;;;4955194;29;20027;-74
2022/05/25 01:49:27;;;;;;;0.57;0.45;;;16.60;99.90;;;;;;4954770;29;20035;-74
2022/05/25 01:52:05;;;;;;;0.30;0.30;;;16.60;99.90;;;;;;4941905;29;20096;-74
2022/05/25 01:54:34;;;;;;;0.40;0.40;;;16.60;99.90;;;;;;4955226;29;20027;-74
2022/05/25 01:57:05;;;;;;;0.40;0.40;;;16.60;99.90;;;;;;4954703;29;20019;-74
2022/05/25 01:59:31;;;;;;;0.40;0.40;;;16.60;99.90;;;;;;4954338;28;20039;-74
2022/05/25 02:04:50;;;;;;;0.40;0.40;;;16.60;99.90;;;;;;4955040;29;20126;-74
2022/05/25 02:07:52;;;;;;;0.40;0.40;;;16.60;99.90;;;;;;4954467;29;20035;-74
2022/05/25 02:10:24;;;;;;;0.32;0.30;;;16.60;99.90;;;;;;4950741;29;20118;-74
2022/05/25 02:13:09;;;;;;;0.40;0.40;;;16.60;99.90;;;;;;4954768;29;20031;-73
2022/05/25 02:15:46;;;;;;;0.68;0.52;;;16.60;99.90;;;;;;4954627;29;20027;-72
2022/05/25 02:18:34;;;;;;;0.35;0.35;;;16.60;99.90;;;;;;4953924;29;20531;-73
2022/05/25 02:21:16;;;;;;;0.55;0.55;;;16.60;99.90;;;;;;4953926;29;20102;-73
2022/05/25 02:23:51;;;;;;;0.55;0.40;;;16.60;99.90;;;;;;4954661;29;20375;-74
2022/05/25 02:26:28;;;;;;;0.35;0.35;;;16.60;99.90;;;;;;4953772;29;20031;-74
2022/05/25 02:29:10;;;;;;;0.93;0.50;;;16.60;99.90;;;;;;4954043;29;20031;-75
2022/05/25 02:31:44;;;;;;;1.42;0.40;;;16.60;99.90;;;;;;4954415;29;20102;-75
2022/05/25 02:34:12;;;;;;;0.32;0.32;;;16.60;99.90;;;;;;4954396;29;20063;-74
2022/05/25 02:36:40;;;;;;;0.30;0.30;;;16.60;99.90;;;;;;4954461;29;20050;-73
2022/05/25 02:39:09;;;;;;;0.28;0.28;;;16.50;99.90;;;;;;4953769;29;20129;-73
2022/05/25 02:41:48;;;;;;;0.73;0.60;;;16.60;99.90;;;;;;4954002;29;20034;-73
2022/05/25 02:44:14;;;;;;;0.55;0.45;;;16.60;99.90;;;;;;4953541;29;20054;-73
2022/05/25 02:46:40;;;;;;;0.45;0.45;;;16.60;99.90;;;;;;4953647;29;20023;-73
2022/05/25 02:49:06;;;;;;;0.50;0.50;;;16.60;99.90;;;;;;4953432;29;20110;-74
2022/05/25 02:51:31;;;;;;;0.47;0.47;;;16.50;99.90;;;;;;4954082;29;20492;-73
2022/05/25 02:53:57;;;;;;;0.30;0.30;;;16.50;99.90;;;;;;4954130;29;20031;-73
2022/05/25 02:56:23;;;;;;;0.60;0.50;;;16.60;99.90;;;;;;4953720;29;20030;-73
2022/05/25 02:58:49;;;;;;;0.30;0.30;;;16.60;99.90;;;;;;4952676;29;20042;-73
2022/05/25 03:01:14;;;;;;;0.63;0.30;;;16.50;99.90;;;;;;4936555;29;20028;-73
2022/05/25 03:03:40;;;;;;;0.50;0.50;;;16.50;99.90;;;;;;4954108;29;20098;-73
2022/05/25 03:06:07;;;;;;;0.40;0.40;;;16.40;99.90;;;;;;4953715;29;20027;-73
2022/05/25 03:08:35;;;;;;;0.32;0.32;;;16.40;99.90;;;;;;4954263;29;20039;-73
2022/05/25 03:11:03;;;;;;;0.32;0.32;;;16.40;99.90;;;;;;4956120;28;20352;-75
2022/05/25 03:13:29;;;;;;;0.30;0.30;;;16.30;99.90;;;;;;4940882;29;20062;-73
2022/05/25 03:15:59;;;;;;;0.40;0.40;;;16.30;99.90;;;;;;4957526;29;20102;-73
2022/05/25 03:18:25;;;;;;;0.30;0.30;;;16.30;99.90;;;;;;4957422;29;20497;-74
2022/05/25 03:20:51;;;;;;;0.45;0.40;;;16.20;99.90;;;;;;4957852;29;20031;-74
2022/05/25 03:23:19;;;;;;;0.38;0.38;;;16.20;99.90;;;;;;4957450;29;20059;-74
2022/05/25 03:25:46;;;;;;;0.38;0.38;;;16.30;99.90;;;;;;4957686;29;20054;-74
2022/05/25 03:28:12;;;;;;;0.38;0.38;;;16.30;99.90;;;;;;4960497;28;20038;-74
2022/05/25 03:30:40;;;;;;;0.45;0.38;;;16.30;99.90;;;;;;4966879;28;20086;-74
2022/05/25 03:33:05;;;;;;;0.40;0.40;;;16.30;99.90;;;;;;4967088;28;20475;-74
2022/05/25 03:35:31;;;;;;;0.30;0.30;;;16.30;99.90;;;;;;4967631;28;20019;-74
2022/05/25 03:37:58;;;;;;;1.30;0.40;;;16.30;99.90;;;;;;4974725;28;20031;-73
2022/05/25 03:40:24;;;;;;;0.30;0.30;;;16.30;99.90;;;;;;4972916;28;20031;-74
2022/05/25 03:42:50;;;;;;;0.28;0.28;;;16.30;99.90;;;;;;4956858;28;20150;-73
2022/05/25 03:45:17;;;;;;;0.30;0.30;;;16.30;99.90;;;;;;4956262;29;20364;-73
2022/05/25 03:47:42;;;;;;;0.55;0.35;;;16.30;99.90;;;;;;4960395;28;20352;-73
2022/05/25 03:50:09;;;;;;;0.40;0.40;;;16.20;99.90;;;;;;4965859;28;20041;-73
2022/05/25 03:52:35;;;;;;;0.20;0.20;;;16.30;99.90;;;;;;4968825;28;20051;-74
2022/05/25 03:55:02;;;;;;;0.30;0.30;;;16.20;99.90;;;;;;4972265;28;20069;-74
2022/05/25 03:57:28;;;;;;;0.43;0.40;;;16.20;99.90;;;;;;4968446;28;20036;-74
2022/05/25 03:59:53;;;;;;;0.30;0.30;;;16.20;99.90;;;;;;4972123;28;20109;-75
2022/05/25 04:02:19;;;;;;;0.30;0.30;;;16.20;99.90;;;;;;4956704;29;20047;-74
2022/05/25 04:04:45;;;;;;;0.20;0.20;;;16.20;99.90;;;;;;4965001;28;20023;-74
2022/05/25 04:07:11;;;;;;;0.30;0.30;;;16.20;99.90;;;;;;4963523;28;20032;-74
2022/05/25 04:09:36;;;;;;;0.43;0.40;;;16.30;99.90;;;;;;4956353;29;20066;-74
2022/05/25 04:12:02;;;;;;;0.30;0.30;;;16.30;99.90;;;;;;4956707;29;20028;-74
2022/05/25 04:14:28;;;;;;;0.57;0.30;;;16.30;99.90;;;;;;4955804;29;20035;-75
2022/05/25 04:16:54;;;;;;;0.77;0.40;;;16.30;99.90;;;;;;4956271;29;20027;-75
2022/05/25 04:19:19;;;;;;;0.30;0.30;;;16.40;99.90;;;;;;4956192;29;20043;-75
2022/05/25 04:21:45;;;;;;;0.30;0.30;;;16.40;99.90;;;;;;4956197;28;20379;-75
2022/05/25 04:24:16;;;;;;;0.73;0.40;;;16.40;99.90;;;;;;4955990;29;20432;-75
2022/05/25 04:26:41;;;;;;;0.20;0.20;;;16.40;99.90;;;;;;4956597;29;20082;-75
2022/05/25 04:29:07;;;;;;;0.22;0.20;;;16.40;99.90;;;;;;4954817;29;20435;-76
2022/05/25 04:31:33;;;;;;;0.40;0.40;;;16.50;99.90;;;;;;4956277;29;20487;-74
2022/05/25 04:33:59;;;;;;;0.50;0.30;;;16.50;99.90;;;;;;4956055;29;20027;-73
2022/05/25 04:36:24;;;;;;;0.30;0.30;;;16.60;99.90;;;;;;4954575;29;20031;-73
2022/05/25 04:38:50;;;;;;;0.43;0.28;;;16.60;99.90;;;;;;4956196;29;20035;-73
2022/05/25 04:41:16;;;;;;;0.43;0.40;;;16.60;99.90;;;;;;4950821;28;20032;-74
2022/05/25 04:43:43;;;;;;;0.50;0.50;;;16.50;99.90;;;;;;4938491;29;20046;-74
2022/05/25 04:46:11;;;;;;;0.40;0.40;;;16.50;99.90;;;;;;4936686;29;20043;-74
2022/05/25 04:48:37;;;;;;;0.55;0.55;;;16.50;99.90;;;;;;4937467;29;20484;-74
2022/05/25 04:51:03;;;;;;;0.50;0.50;;;16.50;99.90;;;;;;4955778;29;20041;-73
2022/05/25 04:53:29;;;;;;;0.43;0.40;;;16.50;99.90;;;;;;4955538;29;20102;-74
2022/05/25 04:58:42;;;;;;;0.50;0.50;;;16.40;99.90;;;;;;4955778;29;20102;-74
2022/05/25 05:01:09;;;;;;;0.65;0.60;;;16.40;99.90;;;;;;4955639;28;20027;-74
2022/05/25 05:03:36;;;;;;;0.85;0.50;;;16.40;99.90;;;;;;4955650;28;20115;-73
2022/05/25 05:06:02;;;;;;;0.30;0.30;;;16.40;99.90;;;;;;4955999;28;20031;-73
2022/05/25 05:08:28;;;;;;;0.32;0.32;;;16.40;99.90;;;;;;4955207;28;20034;-74
2022/05/25 05:10:55;;;;;;;0.57;0.30;;;16.40;99.90;;;;;;4956083;29;20027;-73
2022/05/25 05:13:22;;;;;;;0.50;0.50;;;16.40;99.90;;;;;;4955400;29;20028;-72
2022/05/25 05:15:51;;;;;;;0.30;0.30;;;16.40;99.90;;;;;;4955804;29;20102;-73
2022/05/25 05:18:19;;;;;;;0.50;0.50;;;16.40;99.90;;;;;;4954855;29;20023;-73
2022/05/25 05:20:44;;;;;;;0.73;0.68;;;16.40;99.90;;;;;;4955360;29;20039;-74
2022/05/25 05:23:11;;;;;;;0.38;0.38;;;16.30;99.90;;;;;;4954964;29;20332;-74
2022/05/25 05:25:37;;;;;;;0.88;0.60;;;16.40;99.90;;;;;;4954941;29;20023;-73
2022/05/25 05:28:30;;;;;;;2.00;0.50;;;16.30;99.90;;;;;;4955530;29;20031;-74
2022/05/25 05:30:58;;;;;;;0.60;0.50;;;16.30;99.90;;;;;;4955353;29;20043;-73
2022/05/25 05:33:25;;;;;;;0.52;0.50;;;16.30;99.90;;;;;;4953974;28;20035;-74
2022/05/25 05:36:04;;;;;;;0.40;0.40;;;16.30;99.90;;;;;;4954716;29;20055;-74
2022/05/25 05:38:33;;;;;;;0.75;0.60;;;16.30;99.90;;;;;;4935395;29;20059;-73
2022/05/25 05:40:59;;;;;;;0.40;0.40;;;16.30;99.90;;;;;;4936002;29;20131;-73
2022/05/25 05:43:25;;;;;;;0.40;0.40;;;16.40;99.90;;;;;;4933881;29;20169;-74
2022/05/25 05:45:53;;;;;;;0.57;0.57;;;16.40;99.90;;;;;;4936004;29;20092;-74
2022/05/25 05:48:27;;;;;;;1.15;0.63;;;16.50;99.90;;;;;;4935465;29;20063;-73
2022/05/25 05:50:54;;;;;;;0.70;0.70;;;16.50;99.90;;;;;;4954224;29;20031;-74
2022/05/25 05:53:21;;;;;;;0.63;0.63;;;16.60;99.90;;;;;;4954568;29;20050;-73
2022/05/25 05:55:47;;;;;;;0.75;0.60;;;16.60;99.90;;;;;;4954846;29;20035;-73
2022/05/25 05:58:13;;;;;;;1.65;0.70;;;16.60;99.90;;;;;;4954006;29;20035;-73
2022/05/25 06:00:39;;;;;;;0.68;0.60;;;16.70;99.90;;;;;;4954748;29;20123;-73
2022/05/25 06:03:05;;;;;;;0.95;0.60;;;16.70;99.90;;;;;;4954830;29;20035;-73
2022/05/25 06:05:32;;;;;;;0.85;0.50;;;16.70;99.90;;;;;;4954164;29;20075;-73
2022/05/25 06:08:12;;;;;;;0.60;0.60;;;16.80;99.90;;;;;;4954697;29;20027;-73
2022/05/25 06:10:38;;;;;;;0.60;0.40;;;16.80;99.90;;;;;;4953682;29;20456;-73
2022/05/25 06:13:04;;;;;;;0.60;0.60;;;16.80;99.90;;;;;;4954535;29;20490;-74
2022/05/25 06:20:58;;;;;;;1.02;0.50;;;16.80;99.90;;;;;;4954312;29;20555;-73
2022/05/25 06:23:25;;;;;;;0.68;0.60;;;16.80;99.90;;;;;;4953839;29;20055;-74
2022/05/25 06:25:51;;;;;;;0.70;0.60;;;16.80;99.90;;;;;;4954309;29;20353;-72
2022/05/25 06:28:16;;;;;;;0.50;0.40;;;16.80;99.90;;;;;;4936614;29;20062;-73
2022/05/25 06:30:42;;;;;;;0.98;0.70;;;16.80;99.90;;;;;;4954020;29;20057;-74
2022/05/25 06:33:08;;;;;;;0.80;0.50;;;16.80;99.90;;;;;;4954078;29;20446;-74
2022/05/25 06:35:34;;;;;;;0.63;0.50;;;16.80;99.90;;;;;;4953706;29;20502;-73
2022/05/25 06:38:00;;;;;;;0.93;0.60;;;16.80;99.90;;;;;;4954002;29;20041;-73
2022/05/25 06:40:26;;;;;;;0.73;0.68;;;16.90;99.90;;;;;;4953304;29;20109;-73
2022/05/25 06:42:53;;;;;;;0.50;0.50;;;16.90;99.90;;;;;;4953364;29;20047;-72
2022/05/25 06:45:18;;;;;;;0.55;0.55;;;16.90;99.90;;;;;;4953432;28;20050;-73
2022/05/25 06:47:44;;;;;;;0.70;0.60;;;16.90;99.90;;;;;;4952687;29;20439;-72
2022/05/25 06:50:10;;;;;;;0.63;0.55;;;16.90;99.90;;;;;;4953448;29;20031;-73
2022/05/25 06:52:36;;;;;;;1.67;0.88;;;16.90;99.90;;;;;;4936652;29;20031;-73
2022/05/25 06:55:03;;;;;;;0.68;0.50;;;16.90;99.90;;;;;;4954247;29;20476;-73
2022/05/25 06:57:29;;;;;;;0.88;0.70;;;16.90;99.90;;;;;;4953634;29;20044;-72
2022/05/25 06:59:55;;;;;;;0.85;0.70;;;17.00;99.90;;;;;;4953894;29;20055;-72
2022/05/25 07:02:21;;;;;;;0.95;0.55;;;17.00;99.90;;;;;;4953157;29;20110;-73
2022/05/25 07:04:47;;;;;;;0.85;0.60;;;17.10;99.90;;;;;;4954111;29;20148;-73
2022/05/25 07:07:13;;;;;;;1.05;0.70;;;17.10;99.90;;;;;;4953493;29;20035;-74
2022/05/25 07:09:39;;;;;;;1.00;0.90;;;17.20;99.90;;;;;;4936594;29;20086;-74
2022/05/25 07:12:06;;;;;;;0.70;0.70;;;17.20;99.90;;;;;;4953779;29;20067;-74
2022/05/25 07:14:33;;;;;;;0.60;0.60;;;17.30;99.90;;;;;;4953070;29;20032;-74
2022/05/25 07:17:03;;;;;;;0.50;0.50;;;17.30;99.90;;;;;;4953718;29;20035;-73
2022/05/25 07:19:28;;;;;;;0.98;0.82;;;17.30;99.90;;;;;;4953361;29;20121;-74
2022/05/25 07:21:55;;;;;;;0.90;0.90;;;17.40;99.90;;;;;;4953480;29;20533;-74
2022/05/25 07:24:21;;;;;;;1.90;0.43;;;17.40;99.90;;;;;;4953233;29;20035;-74
2022/05/25 07:26:47;;;;;;;0.50;0.50;;;17.50;99.90;;;;;;4953992;29;20031;-74
2022/05/25 07:29:12;;;;;;;0.60;0.50;;;17.60;99.90;;;;;;4952248;29;20098;-76
2022/05/25 07:31:52;;;;;;;0.47;0.47;;;17.80;99.90;;;;;;4953032;29;20023;-74
2022/05/25 07:34:21;;;;;;;0.70;0.70;;;17.90;99.90;;;;;;4953287;29;20038;-73
2022/05/25 07:36:53;;;;;;;0.50;0.50;;;17.90;99.90;;;;;;4953396;29;20101;-73
2022/05/25 07:39:24;;;;;;;0.70;0.63;;;17.90;99.90;;;;;;4952942;29;20043;-73
2022/05/25 07:41:54;;;;;;;0.60;0.60;;;18.00;99.90;;;;;;4936227;29;20031;-74
2022/05/25 07:44:26;;;;;;;0.93;0.85;;;18.10;99.90;;;;;;4953377;29;20051;-75
2022/05/25 07:46:52;;;;;;;0.77;0.57;;;18.20;99.90;;;;;;4953548;29;20035;-73
2022/05/25 07:49:18;;;;;;;0.88;0.88;;;18.30;99.90;;;;;;4952984;29;20040;-73
2022/05/25 07:51:44;;;;;;;0.40;0.40;;;18.40;99.90;;;;;;4953584;29;20034;-73
2022/05/25 07:54:11;;;;;;;0.77;0.60;;;18.50;99.90;;;;;;4953479;29;20023;-73
2022/05/25 07:56:38;;;;;;;0.63;0.63;;;18.70;99.90;;;;;;4954583;28;20027;-73
2022/05/25 07:59:07;;;;;;;0.40;0.40;;;19.00;99.90;;;;;;4956991;29;20118;-73
2022/05/25 08:07:12;;;;;;;0.60;0.60;;;19.20;99.90;;;;;;4956532;29;20030;-74
2022/05/25 08:09:38;;;;;;;0.50;0.50;;;19.20;99.90;;;;;;4956352;29;20031;-74
2022/05/25 08:12:06;;;;;;;1.20;0.70;;;19.30;99.90;;;;;;4956718;29;20038;-73
2022/05/25 08:14:33;;;;;;;1.10;0.50;;;19.30;99.90;;;;;;4956364;29;20038;-72
2022/05/25 08:16:58;;;;;;;0.73;0.43;;;19.30;99.90;;;;;;4956806;29;20027;-74
2022/05/25 08:19:24;;;;;;;1.33;0.65;;;19.20;99.40;;;;;;4939172;29;20126;-74
2022/05/25 08:21:52;;;;;;;0.50;0.50;;;19.10;99.60;;;;;;4956731;29;20027;-74
2022/05/25 08:24:18;;;;;;;0.32;0.32;;;19.10;99.90;;;;;;4956195;29;20054;-74
2022/05/25 08:26:44;;;;;;;0.75;0.75;;;19.00;99.90;;;;;;4956604;29;20027;-74
2022/05/25 08:29:10;;;;;;;0.40;0.40;;;19.00;99.90;;;;;;4956189;29;20180;-74
2022/05/25 08:31:36;;;;;;;0.40;0.40;;;19.00;99.90;;;;;;4955803;29;20395;-74
2022/05/25 08:34:03;;;;;;;0.60;0.47;;;19.00;99.90;;;;;;4956727;29;20047;-73
2022/05/25 08:36:29;;;;;;;0.60;0.60;;;19.10;99.90;;;;;;4955909;29;20031;-73
2022/05/25 08:38:55;;;;;;;0.30;0.30;;;19.20;99.90;;;;;;4956450;29;20130;-73
2022/05/25 08:41:30;;;;;;;0.50;0.50;;;19.30;99.90;;;;;;4955748;29;20187;-73
2022/05/25 08:43:57;;;;;;;0.40;0.40;;;19.30;99.90;;;;;;4956399;29;20062;-73
2022/05/25 08:46:24;;;;;;;0.43;0.43;;;19.50;99.90;;;;;;4955884;29;20024;-73
2022/05/25 08:48:51;;;;;;;0.45;0.40;;;19.60;98.50;;;;;;4956048;29;20041;-73
2022/05/25 08:51:20;;;;;;;0.40;0.40;;;19.70;98.10;;;;;;4956566;29;20027;-73
2022/05/25 08:53:47;;;;;;;2.63;0.52;;;19.80;97.40;;;;;;4955968;29;20122;-73
2022/05/25 08:56:37;;;;;;;0.43;0.40;;;19.90;97.40;;;;;;4955988;29;20023;-73
2022/05/25 08:59:21;;;;;;;0.50;0.50;;;19.90;96.20;;;;;;4956021;29;20043;-73
2022/05/25 09:01:58;;;;;;;1.20;0.38;;;20.00;96.70;;;;;;4956021;29;20034;-73
2022/05/25 09:04:51;;;;;;;0.40;0.40;;;20.00;95.80;;;;;;4955529;29;20039;-74
2022/05/25 09:07:35;;;;;;;0.47;0.40;;;20.00;95.70;;;;;;4955143;28;20481;-74
2022/05/25 09:10:03;;;;;;;0.52;0.52;;;20.20;95.50;;;;;;4955978;29;20028;-74
2022/05/25 09:12:37;;;;;;;0.50;0.50;;;20.30;95.30;;;;;;4955410;29;20066;-74
2022/05/25 09:15:09;;;;;;;0.45;0.45;;;20.40;95.30;;;;;;4955679;29;20035;-74
2022/05/25 09:17:41;;;;;;;0.68;0.63;;;20.50;94.90;;;;;;4955460;29;20526;-74
2022/05/25 09:20:08;;;;;;;0.68;0.60;;;20.40;93.40;;;;;;4955578;29;20032;-74
2022/05/25 09:22:35;;;;;;;0.40;0.40;;;20.30;93.60;;;;;;4955121;29;20063;-73
2022/05/25 09:25:05;;;;;;;0.40;0.40;;;20.30;93.50;;;;;;4955748;29;20086;-73
2022/05/25 09:27:43;;;;;;;0.40;0.40;;;20.30;92.80;;;;;;4954818;29;20028;-73
2022/05/25 09:30:10;;;;;;;0.50;0.50;;;20.50;93.90;;;;;;4955446;29;20038;-74
2022/05/25 09:32:39;;;;;;;0.40;0.40;;;20.50;93.20;;;;;;4955041;29;20070;-73
2022/05/25 09:35:08;;;;;;;0.55;0.55;;;20.60;92.40;;;;;;4955669;29;20023;-73
2022/05/25 09:37:46;;;;;;;0.43;0.40;;;20.50;92.10;;;;;;4955028;29;20114;-74
2022/05/25 09:40:24;;;;;;;0.60;0.60;;;20.60;93.60;;;;;;4955447;29;20039;-74
2022/05/25 09:42:57;;;;;;;0.40;0.40;;;20.60;92.60;;;;;;4955182;29;20131;-74
2022/05/25 09:45:45;;;;;;;0.63;0.55;;;20.50;92.40;;;;;;4954781;29;20035;-75
2022/05/25 09:48:15;;;;;;;0.30;0.30;;;20.60;92.00;;;;;;4954987;29;20037;-73
2022/05/25 09:50:48;;;;;;;2.10;0.75;;;20.60;91.60;;;;;;4954573;29;20039;-74
2022/05/25 09:53:17;;;;;;;0.70;0.60;;;20.60;91.60;;;;;;4954987;29;20027;-74
2022/05/25 09:55:46;;;;;;;0.50;0.50;;;20.60;91.80;;;;;;4954559;29;20032;-74
2022/05/25 09:58:26;;;;;;;0.47;0.47;;;20.60;91.50;;;;;;4937840;29;20043;-74
2022/05/25 10:01:04;;;;;;;0.73;0.60;;;20.70;91.60;;;;;;4937852;29;20039;-74
2022/05/25 10:03:39;;;;;;;0.50;0.50;;;20.70;91.20;;;;;;4954243;29;20471;-74
2022/05/25 10:06:25;;;;;;;0.40;0.40;;;20.70;91.10;;;;;;4954829;29;20031;-74
2022/05/25 10:09:08;;;;;;;0.60;0.60;;;20.60;90.40;;;;;;4954359;29;20043;-74
2022/05/25 10:11:41;;;;;;;0.40;0.40;;;20.50;91.10;;;;;;4954152;29;20472;-74
2022/05/25 10:14:18;;;;;;;0.47;0.47;;;20.50;91.90;;;;;;4954814;29;20131;-73
2022/05/25 10:16:43;;;;;;;0.63;0.60;;;20.30;91.80;;;;;;4954256;29;20116;-73
2022/05/25 10:19:17;;;;;;;0.40;0.40;;;20.30;92.50;;;;;;4953863;28;20067;-73
2022/05/25 10:21:53;;;;;;;1.13;0.80;;;20.40;93.10;;;;;;4954088;29;20027;-73
2022/05/25 10:24:40;;;;;;;1.30;0.40;;;20.50;92.80;;;;;;4954806;29;20491;-73
2022/05/25 10:27:27;;;;;;;0.50;0.50;;;20.60;91.80;;;;;;4954368;29;20186;-73
2022/05/25 10:38:30;;;;;;;0.70;0.70;;;20.80;90.90;;;;;;4953928;29;20082;-75
2022/05/25 10:40:58;;;;;;;0.57;0.50;;;20.80;90.60;;;;;;4954128;29;20467;-74
2022/05/25 10:43:29;;;;;;;0.60;0.60;;;20.70;90.00;;;;;;4936870;29;20143;-73
2022/05/25 10:45:59;;;;;;;1.33;0.35;;;20.90;90.80;;;;;;4954462;29;20389;-73
2022/05/25 10:48:53;;;;;;;0.33;0.33;;;21.00;89.20;;;;;;4954249;29;20027;-73
2022/05/25 10:51:31;;;;;;;0.43;0.43;;;21.10;88.30;;;;;;4953940;29;20106;-73
2022/05/25 10:57:01;;;;;;;0.32;0.32;;;21.20;88.80;;;;;;4953043;29;20034;-73
2022/05/25 10:59:43;;;;;;;0.32;0.32;;;21.30;87.70;;;;;;4953376;29;20032;-75
2022/05/25 11:02:45;;;;;;;0.85;0.40;;;21.30;86.30;;;;;;4953648;28;20027;-74
2022/05/25 11:05:40;;;;;;;0.40;0.40;;;21.30;86.10;;;;;;4953828;29;20058;-73
2022/05/25 11:08:38;;;;;;;0.40;0.40;;;21.30;85.20;;;;;;4953747;28;20391;-73
2022/05/25 11:11:29;;;;;;;0.47;0.30;;;21.30;86.60;;;;;;4948609;29;20044;-73
2022/05/25 11:14:32;;;;;;;0.43;0.40;;;21.10;86.90;;;;;;4953702;28;20357;-73
2022/05/25 11:17:36;;;;;;;0.40;0.40;;;21.10;88.80;;;;;;4953719;28;20496;-74
2022/05/25 11:20:16;;;;;;;0.55;0.40;;;21.00;87.10;;;;;;4913223;29;20451;-73
2022/05/25 11:23:27;;;;;;;0.30;0.30;;;21.00;87.30;;;;;;4913045;29;20036;-74
2022/05/25 11:26:23;;;;;;;0.30;0.30;;;21.00;86.00;;;;;;4856854;29;20038;-74
2022/05/25 11:29:07;;;;;;;0.28;0.28;;;21.00;84.90;;;;;;4904005;29;20037;-74
2022/05/25 11:31:47;;;;;;;0.50;0.50;;;21.00;84.30;;;;;;4879532;29;20450;-75
2022/05/25 11:34:57;;;;;;;0.30;0.30;;;20.90;83.20;;;;;;4898003;29;20085;-73
2022/05/25 11:37:30;;;;;;;0.60;0.30;;;20.70;83.90;;;;;;4895677;29;20096;-74
2022/05/25 11:40:05;;;;;;;0.52;0.50;;;20.60;85.40;;;;;;4898121;29;20116;-74
2022/05/25 11:43:08;;;;;;;0.50;0.50;;;20.50;86.70;;;;;;4897501;29;20032;-76
2022/05/25 11:45:50;;;;;;;0.47;0.47;;;20.40;88.40;;;;;;4897502;29;20095;-73
2022/05/25 11:48:19;;;;;;;0.47;0.38;;;20.40;89.60;;;;;;4897949;29;20444;-73
2022/05/25 11:51:09;;;;;;;0.40;0.40;;;20.40;89.70;;;;;;4925881;29;20074;-74
2022/05/25 11:54:06;;;;;;;0.60;0.47;;;20.40;90.00;;;;;;4956585;29;20066;-74
2022/05/25 11:57:01;;;;;;;1.48;0.50;;;20.30;89.20;;;;;;4956986;29;20055;-76
2022/05/25 11:59:44;;;;;;;0.60;0.60;;;20.20;89.70;;;;;;4930611;29;20490;-74
2022/05/25 12:02:35;;;;;;;0.80;0.70;;;20.10;90.80;;;;;;4940164;29;20092;-74
2022/05/25 12:05:12;;;;;;;0.65;0.40;;;20.10;91.50;;;;;;4956862;29;20031;-74
2022/05/25 12:07:47;;;;;;;0.93;0.52;;;20.00;92.30;;;;;;4939505;29;20067;-74
2022/05/25 12:10:32;;;;;;;0.50;0.50;;;19.90;92.20;;;;;;4956916;29;20424;-74
2022/05/25 12:13:09;;;;;;;0.43;0.43;;;19.90;92.20;;;;;;4956566;29;20391;-74
2022/05/25 12:16:03;;;;;;;1.35;0.90;;;19.80;93.00;;;;;;4956414;29;20074;-75
2022/05/25 12:19:11;;;;;;;0.70;0.50;;;19.80;93.90;;;;;;4956852;29;20037;-74
2022/05/25 12:21:45;;;;;;;0.57;0.57;;;19.80;95.10;;;;;;4956243;29;20487;-75
2022/05/25 12:24:29;;;;;;;0.60;0.60;;;19.70;95.30;;;;;;4956692;29;20023;-74
2022/05/25 12:26:58;;;;;;;0.70;0.70;;;19.50;95.10;;;;;;4956436;29;20444;-74
2022/05/25 12:29:33;;;;;;;0.98;0.63;;;19.40;95.90;;;;;;4956269;29;20110;-74
2022/05/25 12:31:59;;;;;;;0.68;0.63;;;19.30;97.00;;;;;;4939218;29;20038;-73
2022/05/25 12:34:34;;;;;;;1.15;0.90;;;19.30;96.90;;;;;;4956320;29;20028;-73
2022/05/25 12:37:02;;;;;;;2.10;0.80;;;19.20;96.50;;;;;;4956129;29;20030;-74
2022/05/25 12:39:43;;;;;;;0.60;0.60;;;19.20;97.10;;;;;;4956302;29;20035;-74
2022/05/25 12:42:28;;;;;;;0.70;0.68;;;19.10;96.40;;;;;;4956420;28;20474;-74
2022/05/25 12:50:47;;;;;;;0.77;0.73;;;18.90;96.10;;;;;;4955754;29;20042;-73
2022/05/25 12:53:25;;;;;;;0.88;0.88;;;18.80;96.40;;;;;;4956231;29;20034;-74
2022/05/25 12:55:54;;;;;;;1.60;0.50;;;18.70;97.40;;;;;;4955445;29;20452;-73
2022/05/25 12:58:45;;;;;;;0.98;0.77;;;18.60;96.70;;;;;;4955914;29;20035;-73
2022/05/25 13:01:14;;;;;;;1.38;0.65;;;18.50;96.90;;;;;;4955843;29;20035;-73
2022/05/25 13:03:45;;;;;;;0.65;0.65;;;18.50;97.70;;;;;;4954809;29;20034;-74
2022/05/25 13:06:12;;;;;;;1.85;0.73;;;18.50;98.00;;;;;;4955574;29;20027;-73
2022/05/25 13:08:50;;;;;;;1.40;0.90;;;18.40;98.50;;;;;;4955457;28;20034;-74
2022/05/25 13:11:36;;;;;;;1.27;0.80;;;18.40;98.90;;;;;;4955407;28;20047;-74
2022/05/25 13:14:16;;;;;;;0.65;0.65;;;18.30;98.60;;;;;;4955545;29;20031;-74
2022/05/25 13:16:41;;;;;;;0.85;0.60;;;18.30;99.40;;;;;;4955301;29;20027;-74
2022/05/25 13:19:32;;;;;;;0.70;0.70;;;18.30;99.90;;;;;;4954075;29;20041;-73
2022/05/25 13:22:07;;;;;;;0.60;0.60;;;18.20;99.90;;;;;;4955285;29;20027;-73
2022/05/25 13:24:53;;;;;;;0.70;0.70;;;18.10;99.90;;;;;;4954899;29;20392;-73
2022/05/25 13:27:21;;;;;;;0.60;0.57;;;18.10;99.90;;;;;;4955047;29;20019;-73
2022/05/25 13:30:17;;;;;;;0.65;0.65;;;18.00;99.90;;;;;;4954710;29;20035;-73
2022/05/25 13:33:13;;;;;;;0.98;0.80;;;18.10;99.90;;;;;;4954769;29;20023;-74
2022/05/25 13:35:44;;;;;;;3.30;0.90;;;18.00;99.90;;;;;;4955072;29;20027;-74
2022/05/25 13:38:24;;;;;;;1.08;1.00;;;18.10;99.90;;;;;;4955338;29;20038;-74
2022/05/25 13:41:04;;;;;;;0.77;0.77;;;18.20;99.90;;;;;;4954907;29;20083;-74
2022/05/25 13:43:44;;;;;;;1.10;0.73;;;18.10;99.90;;;;;;4955002;29;20055;-73
2022/05/25 13:46:13;;;;;;;1.30;1.10;;;18.20;99.90;;;;;;4954840;29;20395;-73
2022/05/25 13:48:50;;;;;;;2.50;1.08;;;18.30;99.90;;;;;;4954713;29;20026;-74
2022/05/25 13:51:19;;;;;;;1.40;1.30;;;18.30;99.90;;;;;;4954988;29;20061;-73